Time;durP1;ratioP1;P1;durP2;ratioP2;P2;SDS_P1;SDS_P2;PMS_P1;PMS_P2;Temp;Humidity;BMP_temperature;BMP_pressure;BME280_temperature;BME280_humidity;BME280_pressure;Samples;Min_cycle;Max_cycle;Signal;HPM_P1;HPM_P2
2023/12/19 00:17:58;;;;;;;39.00;19.83;;;;;;;;;;4638515;30;20116;-87
2023/12/19 00:25:25;;;;;;;;;;;;;;;;;;;;;
2023/12/19 02:50:25;;;;;;;16.83;10.50;;;;;;;;;;4540529;24;20065;-85
2023/12/19 02:53:12;;;;;;;16.70;10.07;;;;;;;;;;4649627;30;20053;-85
2023/12/19 02:56:34;;;;;;;;;;;;;;;;;;;;;
2023/12/19 02:59:48;;;;;;;;;;;;;;;;;;;;;
2023/12/19 03:02:58;;;;;;;;;;;;;;;;;;;;;
2023/12/19 03:05:53;;;;;;;17.40;9.27;;;;;;;;;;4689570;30;20060;-86
2023/12/19 03:11:45;;;;;;;15.05;8.85;;;;;;;;;;4677353;30;20528;-86
2023/12/19 03:14:26;;;;;;;14.40;9.18;;;;;;;;;;4688708;30;20697;-85
2023/12/19 03:17:18;;;;;;;12.85;8.30;;;;;;;;;;4686363;30;20053;-85
2023/12/19 03:20:16;;;;;;;15.57;8.63;;;;;;;;;;4680989;30;20075;-85
2023/12/19 03:26:35;;;;;;;16.00;9.18;;;;;;;;;;4630204;30;19932;-86
2023/12/19 03:31:54;;;;;;;13.93;8.15;;;;;;;;;;4766908;24;20061;-85
2023/12/19 03:58:50;;;;;;;;;;;;;;;;;;;;;
2023/12/19 04:16:14;;;;;;;14.27;8.80;;;;;;;;;;4522783;31;20122;-85
2023/12/19 04:19:39;;;;;;;14.85;8.25;;;;;;;;;;4501012;31;20056;-85
2023/12/19 04:23:23;;;;;;;;;;;;;;;;;;;;;
2023/12/19 04:27:01;;;;;;;15.90;9.60;;;;;;;;;;4519713;30;20124;-85
2023/12/19 04:41:16;;;;;;;13.95;8.07;;;;;;;;;;4186212;28;20066;-86
2023/12/19 04:44:05;;;;;;;16.08;8.63;;;;;;;;;;4625473;30;20063;-85
2023/12/19 04:53:48;;;;;;;15.98;8.57;;;;;;;;;;4594490;30;20071;-85
2023/12/19 04:56:49;;;;;;;;;;;;;;;;;;;;;
2023/12/19 05:03:54;;;;;;;13.13;7.85;;;;;;;;;;4537373;31;20119;-85
2023/12/19 05:06:44;;;;;;;13.05;8.10;;;;;;;;;;4490041;31;20390;-84
2023/12/19 05:17:30;;;;;;;;;;;;;;;;;;;;;
2023/12/19 05:24:33;;;;;;;;;;;;;;;;;;;;;
2023/12/19 06:49:32;;;;;;;7.63;5.00;;;;;;;;;;5950536;24;20068;-85
2023/12/19 08:44:23;;;;;;;8.45;5.13;;;;;;;;;;6232307;22;20024;-93
2023/12/19 08:46:53;;;;;;;8.27;5.35;;;;;;;;;;6188467;23;20503;-93
2023/12/19 08:49:19;;;;;;;9.00;5.28;;;;;;;;;;6189107;23;20054;-92
2023/12/19 08:51:46;;;;;;;7.55;5.07;;;;;;;;;;6186556;23;20016;-93
2023/12/19 08:54:21;;;;;;;7.65;4.80;;;;;;;;;;6184418;23;20019;-93
2023/12/19 08:56:47;;;;;;;8.27;4.80;;;;;;;;;;6209746;23;20012;-93
2023/12/19 08:59:13;;;;;;;10.18;4.95;;;;;;;;;;6186397;23;20095;-93
2023/12/19 09:01:41;;;;;;;7.70;4.90;;;;;;;;;;6188722;23;20090;-93
2023/12/19 09:04:07;;;;;;;7.47;4.90;;;;;;;;;;6186940;23;20012;-93
2023/12/19 09:06:33;;;;;;;7.85;4.82;;;;;;;;;;6218636;23;20020;-92
2023/12/19 09:09:01;;;;;;;9.73;4.93;;;;;;;;;;6193689;23;20034;-92
2023/12/19 09:11:27;;;;;;;8.33;4.57;;;;;;;;;;6214843;23;20016;-92
2023/12/19 09:13:53;;;;;;;9.05;5.22;;;;;;;;;;6188279;23;20027;-93
2023/12/19 09:16:19;;;;;;;8.32;4.82;;;;;;;;;;6212142;23;20016;-93
2023/12/19 09:18:45;;;;;;;7.68;4.72;;;;;;;;;;6189386;23;20020;-93
2023/12/19 09:21:12;;;;;;;8.55;4.93;;;;;;;;;;6185990;23;20453;-93
2023/12/19 09:23:38;;;;;;;7.97;4.75;;;;;;;;;;6181635;23;20392;-93
2023/12/19 09:26:04;;;;;;;9.35;4.95;;;;;;;;;;6179240;23;20024;-93
2023/12/19 09:28:30;;;;;;;7.82;4.70;;;;;;;;;;6182772;23;20066;-93
2023/12/19 09:30:56;;;;;;;7.63;5.05;;;;;;;;;;6184671;23;20516;-94
2023/12/19 09:33:22;;;;;;;9.52;4.90;;;;;;;;;;6187465;23;20171;-93
2023/12/19 09:35:51;;;;;;;7.63;4.95;;;;;;;;;;6188026;23;20013;-93
2023/12/19 09:38:17;;;;;;;8.02;4.95;;;;;;;;;;6214634;23;20020;-93
2023/12/19 09:40:44;;;;;;;7.88;5.18;;;;;;;;;;6191604;23;20452;-93
2023/12/19 09:43:10;;;;;;;6.93;4.65;;;;;;;;;;6188870;23;20355;-94
2023/12/19 09:45:41;;;;;;;8.93;4.82;;;;;;;;;;6219930;23;20024;-93
2023/12/19 09:48:08;;;;;;;8.68;5.38;;;;;;;;;;6190584;23;20020;-93
2023/12/19 09:50:36;;;;;;;11.57;7.57;;;;;;;;;;6216768;23;20157;-93
2023/12/19 09:53:07;;;;;;;11.27;6.65;;;;;;;;;;6189454;23;20024;-93
2023/12/19 09:55:33;;;;;;;;;;;;;;;;;;6217598;23;20563;-94
2023/12/19 09:57:59;;;;;;;8.13;4.90;;;;;;;;;;6217334;23;19923;-92
2023/12/19 10:00:26;;;;;;;9.63;4.40;;;;;;;;;;6195786;23;20042;-92
2023/12/19 10:02:54;;;;;;;9.35;5.13;;;;;;;;;;6195430;23;20020;-93
2023/12/19 10:05:20;;;;;;;7.68;4.85;;;;;;;;;;6192539;23;20016;-93
2023/12/19 10:07:47;;;;;;;8.82;5.18;;;;;;;;;;6220612;23;20022;-93
2023/12/19 10:10:13;;;;;;;9.00;4.80;;;;;;;;;;6221521;23;20528;-93
2023/12/19 10:12:47;;;;;;;8.93;5.20;;;;;;;;;;6194518;23;20028;-93
2023/12/19 10:15:15;;;;;;;9.02;5.93;;;;;;;;;;6216052;23;20046;-93
2023/12/19 10:17:41;;;;;;;10.40;5.90;;;;;;;;;;6215828;23;20046;-93
2023/12/19 10:20:11;;;;;;;9.95;6.38;;;;;;;;;;6191944;23;20012;-93
2023/12/19 10:22:38;;;;;;;9.35;5.78;;;;;;;;;;6191981;23;20449;-93
2023/12/19 10:25:04;;;;;;;10.32;6.00;;;;;;;;;;6196017;23;20095;-93
2023/12/19 10:27:30;;;;;;;9.75;6.10;;;;;;;;;;6201377;23;20020;-93
2023/12/19 10:30:17;;;;;;;9.85;5.80;;;;;;;;;;6193740;23;20020;-93
2023/12/19 10:32:43;;;;;;;11.35;6.60;;;;;;;;;;6195003;23;20020;-92
2023/12/19 10:35:09;;;;;;;10.35;6.32;;;;;;;;;;6188525;23;20454;-93
2023/12/19 10:37:36;;;;;;;11.95;6.15;;;;;;;;;;6191920;23;20043;-92
2023/12/19 10:40:14;;;;;;;11.05;6.40;;;;;;;;;;6191683;23;20020;-92
2023/12/19 10:42:40;;;;;;;11.15;6.65;;;;;;;;;;6217340;23;20027;-94
2023/12/19 10:45:07;;;;;;;10.45;5.97;;;;;;;;;;6219188;23;20833;-92
2023/12/19 10:47:33;;;;;;;11.40;7.03;;;;;;;;;;6195711;23;20020;-92
2023/12/19 10:50:01;;;;;;;11.43;6.32;;;;;;;;;;6194051;23;20311;-93
2023/12/19 10:52:28;;;;;;;10.40;6.25;;;;;;;;;;6218349;23;20070;-93
2023/12/19 10:55:09;;;;;;;10.98;6.43;;;;;;;;;;6193055;23;20016;-93
2023/12/19 10:57:36;;;;;;;9.00;6.05;;;;;;;;;;6193566;23;20358;-94
2023/12/19 11:00:13;;;;;;;9.27;6.03;;;;;;;;;;6192054;23;20020;-93
2023/12/19 11:02:55;;;;;;;10.70;5.88;;;;;;;;;;6217537;23;20020;-94
2023/12/19 11:05:26;;;;;;;8.82;6.43;;;;;;;;;;6211239;23;20020;-93
2023/12/19 11:07:52;;;;;;;9.15;5.95;;;;;;;;;;6186275;23;20038;-93
2023/12/19 11:10:19;;;;;;;10.23;6.18;;;;;;;;;;6189920;23;20016;-94
2023/12/19 11:12:45;;;;;;;11.00;6.65;;;;;;;;;;6188918;23;20050;-94
2023/12/19 11:15:11;;;;;;;10.98;6.40;;;;;;;;;;6184418;23;20535;-93
2023/12/19 11:17:59;;;;;;;9.00;6.15;;;;;;;;;;6208217;23;20082;-93
2023/12/19 11:20:28;;;;;;;10.00;6.35;;;;;;;;;;6182437;23;20440;-92
2023/12/19 11:23:12;;;;;;;8.80;5.78;;;;;;;;;;6205195;23;20020;-93
2023/12/19 11:25:39;;;;;;;11.57;6.18;;;;;;;;;;6208288;23;20027;-92
2023/12/19 11:28:05;;;;;;;9.65;6.28;;;;;;;;;;6179902;23;20474;-94
2023/12/19 11:30:32;;;;;;;12.07;6.95;;;;;;;;;;6181881;23;20043;-93
2023/12/19 11:33:04;;;;;;;11.43;6.88;;;;;;;;;;6179980;23;20379;-94
2023/12/19 11:35:31;;;;;;;9.07;6.10;;;;;;;;;;6178243;23;20043;-93
2023/12/19 11:38:24;;;;;;;9.68;6.43;;;;;;;;;;6202246;23;20095;-93
2023/12/19 11:40:53;;;;;;;10.27;6.70;;;;;;;;;;6224986;23;20517;-94
2023/12/19 11:43:28;;;;;;;9.07;6.45;;;;;;;;;;6179289;23;20031;-94
2023/12/19 11:45:54;;;;;;;12.27;7.20;;;;;;;;;;6227414;23;20032;-94
2023/12/19 11:48:40;;;;;;;11.63;7.20;;;;;;;;;;6210742;23;20016;-94
2023/12/19 11:51:10;;;;;;;10.88;7.25;;;;;;;;;;6205941;23;20077;-94
2023/12/19 11:53:38;;;;;;;10.77;7.35;;;;;;;;;;6183453;23;20085;-94
2023/12/19 11:56:08;;;;;;;9.77;6.65;;;;;;;;;;6184904;23;20016;-94
2023/12/19 11:58:34;;;;;;;12.18;7.20;;;;;;;;;;6184517;23;20388;-94
2023/12/19 12:01:10;;;;;;;10.00;6.75;;;;;;;;;;6181997;23;20027;-93
2023/12/19 12:03:39;;;;;;;10.35;7.07;;;;;;;;;;6188523;23;20023;-93
2023/12/19 12:06:05;;;;;;;9.18;7.22;;;;;;;;;;6187290;23;20132;-93
2023/12/19 12:08:35;;;;;;;10.43;7.55;;;;;;;;;;6214565;23;20027;-94
2023/12/19 12:11:07;;;;;;;10.68;7.60;;;;;;;;;;6188613;23;20438;-94
2023/12/19 12:40:26;;;;;;;;;;;;;;;;;;;;;
2023/12/19 14:21:24;;;;;;;6.07;4.40;;;;;;;;;;6259391;22;20031;-93
2023/12/19 14:26:47;;;;;;;6.35;4.00;;;;;;;;;;6207101;22;20125;-92
2023/12/19 14:29:19;;;;;;;5.15;3.47;;;;;;;;;;6206552;22;20011;-91
2023/12/19 14:32:15;;;;;;;5.18;3.90;;;;;;;;;;6183364;22;20462;-92
2023/12/19 14:34:56;;;;;;;4.72;3.92;;;;;;;;;;6207391;22;20023;-92
2023/12/19 14:37:35;;;;;;;;;;;;;;;;;;;;;
2023/12/19 14:40:19;;;;;;;;;;;;;;;;;;;;;
2023/12/19 14:42:46;;;;;;;6.47;4.30;;;;;;;;;;6208927;22;20446;-92
2023/12/19 14:45:51;;;;;;;;;;;;;;;;;;;;;
2023/12/19 14:48:59;;;;;;;5.70;3.80;;;;;;;;;;6224920;22;20591;-92
2023/12/19 14:51:46;;;;;;;;;;;;;;;;;;;;;
2023/12/19 14:54:29;;;;;;;5.03;3.47;;;;;;;;;;6260935;22;20020;-91
2023/12/19 14:57:03;;;;;;;6.50;3.78;;;;;;;;;;6164124;22;20019;-92
2023/12/19 15:06:15;;;;;;;5.70;3.95;;;;;;;;;;6201687;23;20020;-92
2023/12/19 15:09:18;;;;;;;5.88;4.00;;;;;;;;;;6174736;23;20083;-92
